createdAt,value
2023-01-11T00:02:07.565Z,12.86
2023-01-11T00:04:34.644Z,12.83
2023-01-11T00:07:01.615Z,12.85
2023-01-11T00:09:28.545Z,12.82
2023-01-11T00:11:55.531Z,12.81
2023-01-11T00:14:22.630Z,12.78
2023-01-11T00:16:49.607Z,12.77
2023-01-11T00:19:16.484Z,12.77
2023-01-11T00:21:43.416Z,12.74
2023-01-11T00:24:10.337Z,12.71
2023-01-11T00:26:37.344Z,12.71
2023-01-11T00:29:04.228Z,12.74
2023-01-11T00:31:31.220Z,12.76
2023-01-11T00:33:58.288Z,12.79
2023-01-11T00:36:26.594Z,12.81
2023-01-11T00:38:54.740Z,12.82
2023-01-11T00:41:32.670Z,12.79
2023-01-11T00:44:08.511Z,12.80
2023-01-11T00:46:44.645Z,12.78
2023-01-11T00:49:11.698Z,12.76
2023-01-11T00:51:38.583Z,12.76
2023-01-11T00:54:05.615Z,12.77
2023-01-11T00:56:32.644Z,12.80
2023-01-11T00:58:59.712Z,12.78
2023-01-11T01:01:26.658Z,12.79
2023-01-11T01:03:53.761Z,12.75
2023-01-11T01:06:20.830Z,12.74
2023-01-11T01:08:47.725Z,12.78
2023-01-11T01:11:15.035Z,12.79
2023-01-11T01:13:51.584Z,12.78
2023-01-11T01:16:19.911Z,12.74
2023-01-11T01:18:46.901Z,12.71
2023-01-11T01:21:13.765Z,12.68
2023-01-11T01:23:40.817Z,12.67
2023-01-11T01:26:07.797Z,12.63
2023-01-11T01:28:37.245Z,12.57
2023-01-11T01:31:04.335Z,12.56
2023-01-11T01:33:31.214Z,12.52
2023-01-11T01:35:58.277Z,12.47
2023-01-11T01:38:25.220Z,12.41
2023-01-11T01:40:52.724Z,12.36
2023-01-11T01:43:19.704Z,12.31
2023-01-11T01:45:50.342Z,12.25
2023-01-11T01:48:19.119Z,12.21
2023-01-11T01:50:48.894Z,12.15
2023-01-11T01:53:20.335Z,12.17
2023-01-11T01:55:51.054Z,12.15
2023-01-11T01:58:19.846Z,12.11
2023-01-11T02:00:47.126Z,12.08
2023-01-11T02:03:19.608Z,12.05
2023-01-11T02:05:47.810Z,12.06
2023-01-11T02:08:18.283Z,12.04
2023-01-11T02:10:45.405Z,12.02
2023-01-11T02:13:14.892Z,12.00
2023-01-11T02:15:41.934Z,11.96
2023-01-11T02:18:12.135Z,11.91
2023-01-11T02:20:48.581Z,11.90
2023-01-11T02:23:17.132Z,11.92
2023-01-11T02:25:53.791Z,11.91
2023-01-11T02:28:30.663Z,11.89
2023-01-11T02:30:58.986Z,11.90
2023-01-11T02:33:26.007Z,11.89
2023-01-11T02:36:02.732Z,11.90
2023-01-11T02:38:33.934Z,11.86
2023-01-11T02:41:01.196Z,11.84
2023-01-11T02:43:42.576Z,11.81
2023-01-11T02:46:15.829Z,11.82
2023-01-11T02:48:50.096Z,11.79
2023-01-11T02:51:20.493Z,11.79
2023-01-11T02:53:51.835Z,11.77
2023-01-11T02:56:21.819Z,11.75
2023-01-11T02:58:50.734Z,11.71
2023-01-11T03:01:19.307Z,11.69
2023-01-11T03:03:46.417Z,11.63
2023-01-11T03:06:15.898Z,11.62
2023-01-11T03:08:52.696Z,11.63
2023-01-11T03:11:36.378Z,11.62
2023-01-11T03:14:04.462Z,11.61
2023-01-11T03:16:40.552Z,11.61
2023-01-11T03:19:10.573Z,11.58
2023-01-11T03:21:38.599Z,11.56
2023-01-11T03:24:14.542Z,11.57
2023-01-11T03:26:49.979Z,11.57
2023-01-11T03:29:18.046Z,11.57
2023-01-11T03:31:48.987Z,11.53
2023-01-11T03:34:19.958Z,11.52
2023-01-11T03:36:47.037Z,11.51
2023-01-11T03:39:13.961Z,11.47
2023-01-11T03:41:42.056Z,11.46
2023-01-11T03:44:10.408Z,11.45
2023-01-11T03:46:39.300Z,11.44
2023-01-11T03:49:09.330Z,11.42
2023-01-11T03:51:40.774Z,11.38
2023-01-11T03:54:09.329Z,11.37
2023-01-11T03:56:40.043Z,11.34
2023-01-11T03:59:06.925Z,11.32
2023-01-11T04:01:33.665Z,11.30
2023-01-11T04:04:00.488Z,11.29
2023-01-11T04:06:27.382Z,11.27
2023-01-11T04:08:54.243Z,11.24
2023-01-11T04:11:21.041Z,11.22
2023-01-11T04:13:47.780Z,11.24
2023-01-11T04:16:14.616Z,11.22
2023-01-11T04:18:41.417Z,11.17
2023-01-11T04:21:08.177Z,11.12
2023-01-11T04:23:34.966Z,11.12
2023-01-11T04:26:01.719Z,11.11
2023-01-11T04:28:28.435Z,11.10
2023-01-11T04:30:55.224Z,11.10
2023-01-11T04:33:21.946Z,11.08
2023-01-11T04:35:50.230Z,11.08
2023-01-11T04:38:17.035Z,11.06
2023-01-11T04:40:43.752Z,11.04
2023-01-11T04:43:10.521Z,11.02
2023-01-11T04:45:37.330Z,11.00
2023-01-11T04:48:04.489Z,11.01
2023-01-11T04:50:31.337Z,11.01
2023-01-11T04:52:59.205Z,10.99
2023-01-11T04:55:26.022Z,10.97
2023-01-11T04:57:52.769Z,10.96
2023-01-11T05:00:19.846Z,10.93
2023-01-11T05:02:46.586Z,10.93
2023-01-11T05:05:13.346Z,10.91
2023-01-11T05:07:41.123Z,10.89
2023-01-11T05:10:08.251Z,10.89
2023-01-11T05:12:35.145Z,10.88
2023-01-11T05:15:01.917Z,10.85
2023-01-11T05:17:28.717Z,10.81
2023-01-11T05:19:55.437Z,10.75
2023-01-11T05:22:22.217Z,10.72
2023-01-11T05:24:49.006Z,10.71
2023-01-11T05:27:15.711Z,10.68
2023-01-11T05:29:44.407Z,10.66
2023-01-11T05:32:12.460Z,10.61
2023-01-11T05:34:39.282Z,10.59
2023-01-11T05:37:06.143Z,10.57
2023-01-11T05:39:32.968Z,10.59
2023-01-11T05:41:59.722Z,10.57
2023-01-11T05:44:36.418Z,10.52
2023-01-11T05:47:04.494Z,10.50
2023-01-11T05:49:31.434Z,10.45
2023-01-11T05:51:58.182Z,10.47
2023-01-11T05:54:24.958Z,10.44
2023-01-11T05:56:51.760Z,10.43
2023-01-11T05:59:18.520Z,10.41
2023-01-11T06:01:45.501Z,10.43
2023-01-11T06:04:12.301Z,10.41
2023-01-11T06:06:39.158Z,10.39
2023-01-11T06:09:05.912Z,10.41
2023-01-11T06:11:32.651Z,10.39
2023-01-11T06:13:59.550Z,10.38
2023-01-11T06:16:26.423Z,10.36
2023-01-11T06:18:53.900Z,10.31
2023-01-11T06:21:22.195Z,10.28
2023-01-11T06:23:52.017Z,10.30
2023-01-11T06:26:20.814Z,10.32
2023-01-11T06:28:48.678Z,10.35
2023-01-11T06:31:17.668Z,10.35
2023-01-11T06:33:46.202Z,10.34
2023-01-11T06:36:13.895Z,10.35
2023-01-11T06:38:42.582Z,10.38
2023-01-11T06:41:11.183Z,10.39
2023-01-11T06:43:42.469Z,10.45
2023-01-11T06:46:11.987Z,10.44
2023-01-11T06:48:39.166Z,10.45
2023-01-11T06:51:06.391Z,10.41
2023-01-11T06:53:33.256Z,10.47
2023-01-11T06:56:00.324Z,10.45
2023-01-11T06:58:28.053Z,10.46
2023-01-11T07:00:57.373Z,10.41
2023-01-11T07:03:25.824Z,10.42
2023-01-11T07:05:53.767Z,10.43
2023-01-11T07:08:20.779Z,10.44
2023-01-11T07:10:48.312Z,10.42
2023-01-11T07:13:17.697Z,10.37
2023-01-11T07:15:46.105Z,10.37
2023-01-11T07:18:13.100Z,10.35
2023-01-11T07:20:40.952Z,10.34
2023-01-11T07:23:08.174Z,10.32
2023-01-11T07:25:38.490Z,10.33
2023-01-11T07:28:12.856Z,10.34
2023-01-11T07:30:57.535Z,10.32
2023-01-11T07:33:27.126Z,10.28
2023-01-11T07:35:55.199Z,10.27
2023-01-11T07:38:30.293Z,10.24
2023-01-11T07:40:57.958Z,10.19
2023-01-11T07:43:29.346Z,10.17
2023-01-11T07:45:59.238Z,10.15
2023-01-11T07:48:27.357Z,10.16
2023-01-11T07:50:56.720Z,10.16
2023-01-11T07:53:26.578Z,10.20
2023-01-11T07:56:00.531Z,10.20
2023-01-11T07:58:36.134Z,10.19
2023-01-11T08:01:04.297Z,10.16
2023-01-11T08:03:32.548Z,10.16
2023-01-11T08:06:07.412Z,10.18
2023-01-11T08:08:35.573Z,10.21
2023-01-11T08:11:13.188Z,10.20
2023-01-11T08:13:59.756Z,10.20
2023-01-11T08:16:30.170Z,10.21
2023-01-11T08:18:59.044Z,10.21
2023-01-11T08:21:25.679Z,10.25
2023-01-11T08:24:02.060Z,10.25
2023-01-11T08:26:28.718Z,10.29
2023-01-11T08:29:02.423Z,10.33
2023-01-11T08:31:39.737Z,10.34
2023-01-11T08:34:11.383Z,10.32
2023-01-11T08:36:46.571Z,10.29
2023-01-11T08:39:32.498Z,10.28
2023-01-11T08:44:56.410Z,10.21
2023-01-11T08:47:24.227Z,10.21
2023-01-11T08:49:52.380Z,10.21
2023-01-11T08:52:26.768Z,10.26
2023-01-11T08:54:53.780Z,10.29
2023-01-11T08:57:31.972Z,10.30
2023-01-11T08:59:58.890Z,10.29
2023-01-11T09:02:25.863Z,10.28
2023-01-11T09:04:52.556Z,10.28
2023-01-11T09:07:22.083Z,10.31
2023-01-11T09:09:48.759Z,10.33
2023-01-11T09:12:17.703Z,10.36
2023-01-11T09:14:48.054Z,10.33
2023-01-11T09:17:18.602Z,10.34
2023-01-11T09:19:50.016Z,10.34
2023-01-11T09:22:19.463Z,10.30
2023-01-11T09:24:46.450Z,10.33
2023-01-11T09:27:17.745Z,10.39
2023-01-11T09:29:47.502Z,10.41
2023-01-11T09:32:14.234Z,10.47
2023-01-11T09:34:43.976Z,10.51
2023-01-11T09:37:15.877Z,10.56
2023-01-11T09:40:01.965Z,10.60
2023-01-11T09:42:42.244Z,10.61
2023-01-11T09:45:11.899Z,10.61
2023-01-11T09:47:51.280Z,10.67
2023-01-11T09:50:37.309Z,10.70
2023-01-11T09:53:14.055Z,10.71
2023-01-11T09:55:42.626Z,10.75
2023-01-11T09:58:23.202Z,10.77
2023-01-11T10:00:56.121Z,10.82
2023-01-11T10:03:23.752Z,10.83
2023-01-11T10:05:56.906Z,10.85
2023-01-11T10:18:30.859Z,10.92
2023-01-11T10:18:40.003Z,10.93
2023-01-11T10:20:43.059Z,10.95
2023-01-11T10:23:32.087Z,11.00
2023-01-11T10:26:16.949Z,11.05
2023-01-11T10:29:07.554Z,11.08
2023-01-11T10:31:50.535Z,11.10
2023-01-11T10:34:43.205Z,11.07
2023-01-11T10:37:25.779Z,11.10
2023-01-11T10:40:50.078Z,11.13
2023-01-11T10:43:25.757Z,11.14
2023-01-11T10:45:54.553Z,11.16
2023-01-11T10:48:33.916Z,11.17
2023-01-11T10:51:01.808Z,11.21
2023-01-11T10:53:32.755Z,11.24
2023-01-11T10:56:09.864Z,11.23
2023-01-11T10:58:38.935Z,11.24
2023-01-11T11:01:12.988Z,11.30
2023-01-11T11:04:05.670Z,11.33
2023-01-11T11:06:52.503Z,11.41
2023-01-11T11:10:00.991Z,11.48
2023-01-11T11:12:32.104Z,11.60
2023-01-11T11:14:58.738Z,11.63
2023-01-11T11:17:26.207Z,11.67
2023-01-11T11:19:53.599Z,11.66
2023-01-11T11:22:21.406Z,11.68
2023-01-11T11:24:52.472Z,11.72
2023-01-11T11:27:19.616Z,11.75
2023-01-11T11:29:51.599Z,11.78
2023-01-11T11:32:23.612Z,11.81
2023-01-11T11:34:53.208Z,11.82
2023-01-11T11:37:21.914Z,11.85
2023-01-11T11:39:50.553Z,11.86
2023-01-11T11:42:18.317Z,11.89
2023-01-11T11:44:45.215Z,11.88
2023-01-11T11:47:15.497Z,11.93
2023-01-11T11:49:42.641Z,11.95
2023-01-11T11:52:13.844Z,11.95
2023-01-11T11:54:47.421Z,11.98
2023-01-11T11:57:15.664Z,11.94
2023-01-11T11:59:47.721Z,11.97
2023-01-11T12:02:22.318Z,11.97
2023-01-11T12:04:50.107Z,12.00
2023-01-11T12:07:23.848Z,12.07
2023-01-11T12:09:57.224Z,12.10
2023-01-11T12:12:26.901Z,12.14
2023-01-11T12:15:05.723Z,12.21
2023-01-11T12:17:32.633Z,12.26
2023-01-11T12:19:59.449Z,12.26
2023-01-11T12:22:28.506Z,12.29
2023-01-11T12:25:04.682Z,12.31
2023-01-11T12:27:40.742Z,12.36
2023-01-11T12:30:08.885Z,12.44
2023-01-11T12:32:36.088Z,12.54
2023-01-11T12:35:12.762Z,12.56
2023-01-11T12:37:48.572Z,12.54
2023-01-11T12:40:15.850Z,12.54
2023-01-11T12:42:50.743Z,12.53
2023-01-11T12:45:26.759Z,12.55
2023-01-11T12:48:02.827Z,12.57
2023-01-11T12:50:41.760Z,12.60
2023-01-11T12:53:17.695Z,12.59
2023-01-11T12:55:51.089Z,12.59
2023-01-11T12:58:25.381Z,12.58
2023-01-11T13:00:59.623Z,12.56
2023-01-11T13:03:33.693Z,12.55
2023-01-11T13:06:08.649Z,12.53
2023-01-11T13:08:44.843Z,12.49
2023-01-11T13:11:35.558Z,12.53
2023-01-11T13:14:11.782Z,12.57
2023-01-11T13:16:43.853Z,12.55
2023-01-11T13:19:19.424Z,12.53
2023-01-11T13:21:53.530Z,12.53
2023-01-11T13:24:26.621Z,12.55
2023-01-11T13:26:58.649Z,12.56
2023-01-11T13:29:34.861Z,12.59
2023-01-11T13:32:03.998Z,12.61
2023-01-11T13:34:35.858Z,12.61
2023-01-11T13:37:08.277Z,12.58
2023-01-11T13:39:41.630Z,12.56
2023-01-11T13:42:13.889Z,12.56
2023-01-11T13:44:46.069Z,12.54
2023-01-11T13:47:18.232Z,12.52
2023-01-11T13:49:45.972Z,12.51
2023-01-11T13:52:15.649Z,12.50
2023-01-11T13:54:51.727Z,12.50
2023-01-11T13:57:26.095Z,12.48
2023-01-11T13:59:55.647Z,12.41
2023-01-11T14:02:31.774Z,12.41
2023-01-11T14:04:59.931Z,12.35
2023-01-11T14:07:36.452Z,12.34
2023-01-11T14:10:12.791Z,12.36
2023-01-11T14:12:48.902Z,12.34
2023-01-11T14:15:27.010Z,12.31
2023-01-11T14:18:06.141Z,12.21
2023-01-11T14:20:38.583Z,12.17
2023-01-11T14:23:12.767Z,12.12
2023-01-11T14:25:48.841Z,12.11
2023-01-11T14:28:25.699Z,12.09
2023-01-11T14:31:01.617Z,12.06
2023-01-11T14:33:37.731Z,12.04
2023-01-11T14:36:13.628Z,12.00
2023-01-11T14:38:51.661Z,11.95
2023-01-11T14:41:27.653Z,11.89
2023-01-11T14:44:00.173Z,11.88
2023-01-11T14:46:34.273Z,11.84
2023-01-11T14:49:10.744Z,11.82
2023-01-11T14:51:45.046Z,11.77
2023-01-11T14:54:15.401Z,11.73
2023-01-11T14:56:42.618Z,11.73
2023-01-11T14:59:29.318Z,11.73
2023-01-11T15:02:03.556Z,11.76
2023-01-11T15:04:38.513Z,11.79
2023-01-11T15:07:14.578Z,11.77
2023-01-11T15:09:44.139Z,11.72
2023-01-11T15:12:12.117Z,11.62
2023-01-11T15:14:38.989Z,11.57
2023-01-11T15:17:15.452Z,11.57
2023-01-11T15:19:43.740Z,11.56
2023-01-11T15:22:22.974Z,11.53
2023-01-11T15:24:56.162Z,11.47
2023-01-11T15:27:25.446Z,11.40
2023-01-11T15:29:56.776Z,11.39
2023-01-11T15:32:23.794Z,11.35
2023-01-11T15:34:50.882Z,11.30
2023-01-11T15:37:27.611Z,11.22
2023-01-11T15:40:14.291Z,11.22
2023-01-11T15:42:54.610Z,11.22
2023-01-11T15:45:21.710Z,11.25
2023-01-11T15:47:49.706Z,11.32
2023-01-11T15:50:29.918Z,11.37
2023-01-11T15:53:06.775Z,11.42
2023-01-11T15:55:36.858Z,11.45
2023-01-11T15:58:15.815Z,11.46
2023-01-11T16:00:50.007Z,11.46
2023-01-11T16:03:25.949Z,11.46
2023-01-11T16:06:02.749Z,11.49
2023-01-11T16:08:34.713Z,11.47
2023-01-11T16:11:08.096Z,11.42
2023-01-11T16:13:45.043Z,11.38
2023-01-11T16:16:18.024Z,11.36
2023-01-11T16:18:47.379Z,11.29
2023-01-11T16:21:20.025Z,11.27
2023-01-11T16:23:47.379Z,11.31
2023-01-11T16:26:17.164Z,11.25
2023-01-11T16:28:48.130Z,11.15
2023-01-11T16:31:15.076Z,11.10
2023-01-11T16:33:41.939Z,11.04
2023-01-11T16:36:16.053Z,11.02
2023-01-11T16:38:46.068Z,10.97
2023-01-11T16:41:14.842Z,10.91
2023-01-11T16:43:48.289Z,10.87
2023-01-11T16:46:24.783Z,10.82
2023-01-11T16:49:08.608Z,10.78
2023-01-11T16:51:35.752Z,10.78
2023-01-11T16:54:03.143Z,10.78
2023-01-11T16:56:31.198Z,10.74
2023-01-11T16:59:07.275Z,10.72
2023-01-11T17:01:49.095Z,10.69
2023-01-11T17:04:26.699Z,10.62
2023-01-11T17:06:53.785Z,10.59
2023-01-11T17:09:21.624Z,10.60
2023-01-11T17:11:50.650Z,10.60
2023-01-11T17:14:20.763Z,10.58
2023-01-11T17:16:49.829Z,10.58
2023-01-11T17:19:18.275Z,10.58
2023-01-11T17:21:50.115Z,10.59
2023-01-11T17:24:18.380Z,10.58
2023-01-11T17:26:48.977Z,10.54
2023-01-11T17:29:18.496Z,10.53
2023-01-11T17:31:45.410Z,10.51
2023-01-11T17:34:17.086Z,10.51
2023-01-11T17:36:44.399Z,10.53
2023-01-11T17:39:17.119Z,10.54
2023-01-11T17:41:53.762Z,10.56
2023-01-11T17:44:31.954Z,10.53
2023-01-11T17:46:59.398Z,10.56
2023-01-11T17:49:29.988Z,10.55
2023-01-11T17:51:58.038Z,10.59
2023-01-11T17:54:26.798Z,10.63
2023-01-11T17:56:56.656Z,10.66
2023-01-11T17:59:24.704Z,10.68
2023-01-11T18:01:54.626Z,10.67
2023-01-11T18:04:22.585Z,10.69
2023-01-11T18:06:50.838Z,10.73
2023-01-11T18:09:19.154Z,10.74
2023-01-11T18:11:47.153Z,10.76
2023-01-11T18:14:18.879Z,10.76
2023-01-11T18:16:56.368Z,10.80
2023-01-11T18:19:25.045Z,10.82
2023-01-11T18:21:53.492Z,10.84
2023-01-11T18:24:22.544Z,10.88
2023-01-11T18:26:50.594Z,10.93
2023-01-11T18:32:05.998Z,10.96
2023-01-11T18:34:33.222Z,11.00
2023-01-11T18:37:00.944Z,11.02
2023-01-11T18:39:27.815Z,11.05
2023-01-11T18:42:04.609Z,11.07
2023-01-11T18:44:33.679Z,11.12
2023-01-11T18:47:00.637Z,11.18
2023-01-11T18:49:27.534Z,11.23
2023-01-11T18:51:54.494Z,11.28
2023-01-11T18:54:21.509Z,11.33
2023-01-11T18:56:48.417Z,11.37
2023-01-11T18:59:15.374Z,11.40
2023-01-11T19:01:54.389Z,11.41
2023-01-11T19:04:25.836Z,11.39
2023-01-11T19:06:52.755Z,11.38
2023-01-11T19:09:19.729Z,11.38
2023-01-11T19:11:46.622Z,11.39
2023-01-11T19:14:13.492Z,11.44
2023-01-11T19:16:40.343Z,11.44
2023-01-11T19:19:07.213Z,11.44
2023-01-11T19:21:34.737Z,11.45
2023-01-11T19:24:01.914Z,11.50
2023-01-11T19:26:28.924Z,11.51
2023-01-11T19:28:55.832Z,11.48
2023-01-11T19:31:22.713Z,11.46
2023-01-11T19:33:49.732Z,11.47
2023-01-11T19:36:16.553Z,11.47
2023-01-11T19:38:43.339Z,11.48
2023-01-11T19:41:10.815Z,11.50
2023-01-11T19:43:44.972Z,11.54
2023-01-11T19:46:14.998Z,11.55
2023-01-11T19:48:43.993Z,11.57
2023-01-11T19:51:11.925Z,11.58
2023-01-11T19:53:38.821Z,11.60
2023-01-11T19:56:07.189Z,11.61
2023-01-11T19:58:36.436Z,11.65
2023-01-11T20:01:09.198Z,11.66
2023-01-11T20:03:36.093Z,11.67
2023-01-11T20:06:04.876Z,11.69
2023-01-11T20:08:31.692Z,11.73
2023-01-11T20:11:03.966Z,11.72
2023-01-11T20:13:30.805Z,11.72
2023-01-11T20:15:57.651Z,11.75
2023-01-11T20:18:24.551Z,11.76
2023-01-11T20:20:54.982Z,11.77
2023-01-11T20:23:22.118Z,11.77
2023-01-11T20:25:49.020Z,11.73
2023-01-11T20:30:42.760Z,11.72
2023-01-11T20:33:10.414Z,11.72
2023-01-11T20:35:38.093Z,11.74
2023-01-11T20:38:04.929Z,11.77
2023-01-11T20:40:31.972Z,11.79
2023-01-11T20:42:59.189Z,11.80
2023-01-11T20:45:29.394Z,11.77
2023-01-11T20:47:56.314Z,11.79
2023-01-11T20:50:23.102Z,11.81
2023-01-11T20:52:50.122Z,11.82
2023-01-11T20:55:17.072Z,11.84
2023-01-11T20:57:45.460Z,11.84
2023-01-11T21:02:38.404Z,11.86
2023-01-11T21:05:05.654Z,11.87
2023-01-11T21:07:32.822Z,11.85
2023-01-11T21:09:59.587Z,11.83
2023-01-11T21:12:26.640Z,11.84
2023-01-11T21:14:53.488Z,11.84
2023-01-11T21:17:20.418Z,11.83
2023-01-11T21:19:47.669Z,11.78
2023-01-11T21:22:14.498Z,11.76
2023-01-11T21:24:41.445Z,11.76
2023-01-11T21:27:08.469Z,11.77
2023-01-11T21:29:35.465Z,11.78
2023-01-11T21:32:02.371Z,11.79
2023-01-11T21:34:29.334Z,11.81
2023-01-11T21:36:56.267Z,11.83
2023-01-11T21:39:23.094Z,11.85
2023-01-11T21:44:34.229Z,11.83
2023-01-11T21:47:01.956Z,11.91
2023-01-11T21:49:28.731Z,11.92
2023-01-11T21:51:55.527Z,11.96
2023-01-11T21:54:22.345Z,11.98
2023-01-11T21:56:49.535Z,11.99
2023-01-11T21:59:16.648Z,12.04
2023-01-11T22:01:46.577Z,12.05
2023-01-11T22:04:14.786Z,12.09
2023-01-11T22:06:43.143Z,12.10
2023-01-11T22:09:11.180Z,12.12
2023-01-11T22:11:38.125Z,12.12
2023-01-11T22:14:06.838Z,12.14
2023-01-11T22:16:34.090Z,12.15
2023-01-11T22:19:01.563Z,12.18
2023-01-11T22:21:29.424Z,12.20
2023-01-11T22:23:57.337Z,12.19
2023-01-11T22:26:24.838Z,12.20
2023-01-11T22:29:03.375Z,12.21
2023-01-11T22:31:30.661Z,12.21
2023-01-11T22:33:58.082Z,12.22
2023-01-11T22:36:25.396Z,12.24
2023-01-11T22:38:52.665Z,12.25
2023-01-11T22:41:19.731Z,12.25
2023-01-11T22:43:46.986Z,12.27
2023-01-11T22:46:15.025Z,12.28
2023-01-11T22:48:41.837Z,12.28
2023-01-11T22:51:09.823Z,12.33
2023-01-11T22:53:37.604Z,12.35
2023-01-11T22:56:05.037Z,12.39
2023-01-11T22:58:31.725Z,12.39
2023-01-11T23:00:58.687Z,12.39
2023-01-11T23:03:26.841Z,12.41
2023-01-11T23:05:53.583Z,12.39
2023-01-11T23:08:20.343Z,12.42
2023-01-11T23:10:47.062Z,12.41
2023-01-11T23:13:23.507Z,12.41
2023-01-11T23:15:52.044Z,12.42
2023-01-11T23:18:18.856Z,12.44
2023-01-11T23:20:46.034Z,12.45
2023-01-11T23:23:12.797Z,12.48
2023-01-11T23:25:39.565Z,12.49
2023-01-11T23:28:06.323Z,12.52
2023-01-11T23:30:33.053Z,12.52
2023-01-11T23:32:59.843Z,12.51
2023-01-11T23:35:26.577Z,12.53
2023-01-11T23:37:54.457Z,12.52
2023-01-11T23:40:21.182Z,12.53
2023-01-11T23:42:47.987Z,12.54
2023-01-11T23:45:14.818Z,12.56
2023-01-11T23:47:41.562Z,12.57
2023-01-11T23:50:08.802Z,12.56
2023-01-11T23:52:35.730Z,12.56
2023-01-11T23:55:02.484Z,12.58
2023-01-11T23:57:29.291Z,12.52
2023-01-11T23:59:56.092Z,12.51
